sensor_id;sensor_type;location;lat;lon;timestamp;P1;durP1;ratioP1;P2;durP2;ratioP2
38909;SDS011;24676;51.360;12.354;2022-09-12T04:00:15;8.73;;;3.67;;
38909;SDS011;24676;51.360;12.354;2022-09-12T04:02:59;5.13;;;3.30;;
38909;SDS011;24676;51.360;12.354;2022-09-12T04:05:43;9.35;;;4.68;;
38909;SDS011;24676;51.360;12.354;2022-09-12T04:08:28;8.25;;;3.97;;
38909;SDS011;24676;51.360;12.354;2022-09-12T04:11:13;9.65;;;4.25;;
38909;SDS011;24676;51.360;12.354;2022-09-12T04:13:58;12.07;;;4.32;;
38909;SDS011;24676;51.360;12.354;2022-09-12T04:16:42;9.38;;;5.18;;
38909;SDS011;24676;51.360;12.354;2022-09-12T04:19:27;9.02;;;4.95;;
38909;SDS011;24676;51.360;12.354;2022-09-12T04:22:11;6.60;;;3.90;;
38909;SDS011;24676;51.360;12.354;2022-09-12T04:24:55;8.90;;;4.45;;
38909;SDS011;24676;51.360;12.354;2022-09-12T04:27:40;8.57;;;4.50;;
38909;SDS011;24676;51.360;12.354;2022-09-12T04:30:25;15.82;;;5.25;;
38909;SDS011;24676;51.360;12.354;2022-09-12T04:33:09;7.15;;;4.20;;
38909;SDS011;24676;51.360;12.354;2022-09-12T04:35:53;8.70;;;5.43;;
38909;SDS011;24676;51.360;12.354;2022-09-12T04:38:37;10.15;;;4.85;;
38909;SDS011;24676;51.360;12.354;2022-09-12T04:41:23;5.97;;;4.25;;
38909;SDS011;24676;51.360;12.354;2022-09-12T04:44:10;11.10;;;5.60;;
38909;SDS011;24676;51.360;12.354;2022-09-12T04:46:55;7.05;;;5.32;;
38909;SDS011;24676;51.360;12.354;2022-09-12T04:49:39;9.05;;;5.57;;
38909;SDS011;24676;51.360;12.354;2022-09-12T04:52:23;8.68;;;5.50;;
38909;SDS011;24676;51.360;12.354;2022-09-12T04:55:08;10.70;;;5.88;;
38909;SDS011;24676;51.360;12.354;2022-09-12T04:57:52;12.43;;;5.05;;
38909;SDS011;24676;51.360;12.354;2022-09-12T05:00:36;13.25;;;6.53;;
38909;SDS011;24676;51.360;12.354;2022-09-12T05:03:20;11.07;;;6.05;;
38909;SDS011;24676;51.360;12.354;2022-09-12T05:06:06;9.68;;;5.68;;
38909;SDS011;24676;51.360;12.354;2022-09-12T05:08:51;8.48;;;4.40;;
38909;SDS011;24676;51.360;12.354;2022-09-12T05:11:37;10.65;;;5.72;;
38909;SDS011;24676;51.360;12.354;2022-09-12T05:14:22;6.53;;;3.55;;
38909;SDS011;24676;51.360;12.354;2022-09-12T05:17:07;14.23;;;5.05;;
38909;SDS011;24676;51.360;12.354;2022-09-12T05:19:51;7.85;;;5.15;;
38909;SDS011;24676;51.360;12.354;2022-09-12T05:22:35;8.63;;;4.03;;
38909;SDS011;24676;51.360;12.354;2022-09-12T05:25:19;8.80;;;5.10;;
38909;SDS011;24676;51.360;12.354;2022-09-12T05:28:03;9.32;;;5.63;;
38909;SDS011;24676;51.360;12.354;2022-09-12T05:30:58;8.95;;;6.53;;
38909;SDS011;24676;51.360;12.354;2022-09-12T05:33:54;10.35;;;6.18;;
38909;SDS011;24676;51.360;12.354;2022-09-12T05:36:39;14.35;;;5.93;;
38909;SDS011;24676;51.360;12.354;2022-09-12T05:39:23;9.90;;;4.90;;
38909;SDS011;24676;51.360;12.354;2022-09-12T05:42:08;9.25;;;5.05;;
38909;SDS011;24676;51.360;12.354;2022-09-12T05:44:52;9.73;;;5.18;;
38909;SDS011;24676;51.360;12.354;2022-09-12T05:47:36;9.30;;;5.97;;
38909;SDS011;24676;51.360;12.354;2022-09-12T05:50:21;9.25;;;5.95;;
38909;SDS011;24676;51.360;12.354;2022-09-12T05:53:05;6.40;;;4.60;;
38909;SDS011;24676;51.360;12.354;2022-09-12T05:55:49;7.10;;;4.63;;
38909;SDS011;24676;51.360;12.354;2022-09-12T05:58:34;6.47;;;5.13;;
38909;SDS011;24676;51.360;12.354;2022-09-12T06:01:20;5.47;;;3.05;;
38909;SDS011;24676;51.360;12.354;2022-09-12T06:09:34;10.05;;;4.75;;
38909;SDS011;24676;51.360;12.354;2022-09-12T06:12:18;7.68;;;4.80;;
38909;SDS011;24676;51.360;12.354;2022-09-12T06:15:05;8.25;;;4.68;;
38909;SDS011;24676;51.360;12.354;2022-09-12T06:17:50;11.45;;;5.32;;
38909;SDS011;24676;51.360;12.354;2022-09-12T06:20:35;9.20;;;5.45;;
38909;SDS011;24676;51.360;12.354;2022-09-12T06:23:19;8.10;;;5.07;;
38909;SDS011;24676;51.360;12.354;2022-09-12T06:26:05;6.85;;;3.90;;
38909;SDS011;24676;51.360;12.354;2022-09-12T06:28:51;8.90;;;4.85;;
38909;SDS011;24676;51.360;12.354;2022-09-12T06:31:37;8.77;;;4.85;;
38909;SDS011;24676;51.360;12.354;2022-09-12T06:34:23;9.85;;;5.80;;
38909;SDS011;24676;51.360;12.354;2022-09-12T06:37:09;6.53;;;4.88;;
38909;SDS011;24676;51.360;12.354;2022-09-12T06:39:53;6.18;;;4.15;;
38909;SDS011;24676;51.360;12.354;2022-09-12T06:42:38;7.97;;;4.50;;
38909;SDS011;24676;51.360;12.354;2022-09-12T06:45:23;8.85;;;5.03;;
38909;SDS011;24676;51.360;12.354;2022-09-12T06:48:08;6.18;;;3.63;;
38909;SDS011;24676;51.360;12.354;2022-09-12T06:50:56;9.43;;;4.40;;
38909;SDS011;24676;51.360;12.354;2022-09-12T06:53:42;6.55;;;4.32;;
38909;SDS011;24676;51.360;12.354;2022-09-12T06:56:28;8.68;;;4.93;;
38909;SDS011;24676;51.360;12.354;2022-09-12T06:59:12;7.82;;;5.05;;
38909;SDS011;24676;51.360;12.354;2022-09-12T07:01:56;10.02;;;4.72;;
38909;SDS011;24676;51.360;12.354;2022-09-12T07:04:40;11.15;;;4.93;;
38909;SDS011;24676;51.360;12.354;2022-09-12T07:07:24;8.70;;;5.20;;
38909;SDS011;24676;51.360;12.354;2022-09-12T07:10:09;9.43;;;4.70;;
38909;SDS011;24676;51.360;12.354;2022-09-12T07:12:55;8.50;;;5.05;;
38909;SDS011;24676;51.360;12.354;2022-09-12T07:15:39;5.80;;;4.38;;
38909;SDS011;24676;51.360;12.354;2022-09-12T07:18:23;6.43;;;3.70;;
38909;SDS011;24676;51.360;12.354;2022-09-12T07:21:11;13.77;;;6.15;;
38909;SDS011;24676;51.360;12.354;2022-09-12T07:23:56;10.15;;;5.82;;
38909;SDS011;24676;51.360;12.354;2022-09-12T07:26:41;7.40;;;4.60;;
38909;SDS011;24676;51.360;12.354;2022-09-12T07:29:26;11.85;;;6.15;;
38909;SDS011;24676;51.360;12.354;2022-09-12T07:32:11;11.98;;;5.25;;
38909;SDS011;24676;51.360;12.354;2022-09-12T07:34:55;8.65;;;4.97;;
38909;SDS011;24676;51.360;12.354;2022-09-12T07:37:39;7.32;;;4.80;;
38909;SDS011;24676;51.360;12.354;2022-09-12T07:40:23;12.00;;;5.53;;
38909;SDS011;24676;51.360;12.354;2022-09-12T07:43:08;14.60;;;6.00;;
38909;SDS011;24676;51.360;12.354;2022-09-12T07:45:56;10.23;;;5.07;;
38909;SDS011;24676;51.360;12.354;2022-09-12T07:48:40;7.60;;;4.82;;
38909;SDS011;24676;51.360;12.354;2022-09-12T07:51:24;10.23;;;4.28;;
38909;SDS011;24676;51.360;12.354;2022-09-12T07:54:09;8.13;;;3.95;;
38909;SDS011;24676;51.360;12.354;2022-09-12T07:56:54;9.48;;;4.97;;
38909;SDS011;24676;51.360;12.354;2022-09-12T07:59:39;8.75;;;3.78;;
38909;SDS011;24676;51.360;12.354;2022-09-12T08:02:24;8.75;;;4.43;;
38909;SDS011;24676;51.360;12.354;2022-09-12T08:05:09;5.68;;;4.38;;
38909;SDS011;24676;51.360;12.354;2022-09-12T08:07:53;6.38;;;4.10;;
38909;SDS011;24676;51.360;12.354;2022-09-12T08:10:38;6.78;;;4.18;;
38909;SDS011;24676;51.360;12.354;2022-09-12T08:13:22;7.03;;;4.80;;
38909;SDS011;24676;51.360;12.354;2022-09-12T08:16:09;6.40;;;4.20;;
38909;SDS011;24676;51.360;12.354;2022-09-12T08:18:56;8.60;;;4.47;;
38909;SDS011;24676;51.360;12.354;2022-09-12T08:21:41;4.53;;;3.95;;
38909;SDS011;24676;51.360;12.354;2022-09-12T08:24:26;8.90;;;4.78;;
38909;SDS011;24676;51.360;12.354;2022-09-12T08:27:10;6.03;;;4.25;;
38909;SDS011;24676;51.360;12.354;2022-09-12T08:29:55;8.88;;;5.15;;
38909;SDS011;24676;51.360;12.354;2022-09-12T08:32:39;7.13;;;2.92;;
38909;SDS011;24676;51.360;12.354;2022-09-12T08:35:23;7.40;;;4.28;;
38909;SDS011;24676;51.360;12.354;2022-09-12T08:38:07;3.22;;;2.42;;
38909;SDS011;24676;51.360;12.354;2022-09-12T08:40:52;6.97;;;3.78;;
38909;SDS011;24676;51.360;12.354;2022-09-12T08:50:01;3.80;;;2.40;;
38909;SDS011;24676;51.360;12.354;2022-09-12T08:56:08;2.92;;;1.77;;
38909;SDS011;24676;51.360;12.354;2022-09-12T08:58:54;4.22;;;2.20;;
38909;SDS011;24676;51.360;12.354;2022-09-12T09:01:39;3.13;;;2.25;;
38909;SDS011;24676;51.360;12.354;2022-09-12T09:04:31;3.65;;;2.05;;
38909;SDS011;24676;51.360;12.354;2022-09-12T09:13:33;3.70;;;2.17;;
38909;SDS011;24676;51.360;12.354;2022-09-12T09:16:54;2.88;;;2.40;;
38909;SDS011;24676;51.360;12.354;2022-09-12T09:19:41;2.90;;;2.33;;
38909;SDS011;24676;51.360;12.354;2022-09-12T09:22:44;2.67;;;2.33;;
38909;SDS011;24676;51.360;12.354;2022-09-12T09:25:42;2.30;;;1.80;;
38909;SDS011;24676;51.360;12.354;2022-09-12T09:31:25;3.63;;;1.92;;
38909;SDS011;24676;51.360;12.354;2022-09-12T09:34:20;5.13;;;2.90;;
38909;SDS011;24676;51.360;12.354;2022-09-12T09:40:20;2.53;;;2.25;;
38909;SDS011;24676;51.360;12.354;2022-09-12T09:43:14;2.45;;;1.63;;
38909;SDS011;24676;51.360;12.354;2022-09-12T09:46:05;1.73;;;1.42;;
38909;SDS011;24676;51.360;12.354;2022-09-12T09:48:50;5.13;;;3.20;;
38909;SDS011;24676;51.360;12.354;2022-09-12T09:51:35;2.60;;;1.80;;
38909;SDS011;24676;51.360;12.354;2022-09-12T09:54:22;6.57;;;1.88;;
38909;SDS011;24676;51.360;12.354;2022-09-12T10:00:24;1.08;;;0.98;;
38909;SDS011;24676;51.360;12.354;2022-09-12T10:06:01;1.23;;;1.13;;
38909;SDS011;24676;51.360;12.354;2022-09-12T10:08:50;1.65;;;1.55;;
38909;SDS011;24676;51.360;12.354;2022-09-12T10:11:46;1.85;;;1.65;;
38909;SDS011;24676;51.360;12.354;2022-09-12T10:17:31;6.30;;;1.88;;
38909;SDS011;24676;51.360;12.354;2022-09-12T10:20:33;1.42;;;1.10;;
38909;SDS011;24676;51.360;12.354;2022-09-12T10:26:11;2.00;;;1.80;;
38909;SDS011;24676;51.360;12.354;2022-09-12T10:31:49;0.85;;;0.85;;
38909;SDS011;24676;51.360;12.354;2022-09-12T10:43:17;1.63;;;1.20;;
38909;SDS011;24676;51.360;12.354;2022-09-12T11:03:30;1.13;;;0.88;;
38909;SDS011;24676;51.360;12.354;2022-09-12T11:06:21;1.00;;;0.65;;
38909;SDS011;24676;51.360;12.354;2022-09-12T11:30:13;1.08;;;0.90;;
38909;SDS011;24676;51.360;12.354;2022-09-12T11:41:44;1.80;;;0.63;;
38909;SDS011;24676;51.360;12.354;2022-09-12T11:44:34;0.93;;;0.82;;
38909;SDS011;24676;51.360;12.354;2022-09-12T11:47:24;0.77;;;0.63;;
38909;SDS011;24676;51.360;12.354;2022-09-12T12:07:21;0.80;;;0.80;;
38909;SDS011;24676;51.360;12.354;2022-09-12T13:18:23;0.55;;;0.55;;
38909;SDS011;24676;51.360;12.354;2022-09-12T13:52:38;2.70;;;0.70;;
38909;SDS011;24676;51.360;12.354;2022-09-12T13:55:32;13.57;;;1.23;;
38909;SDS011;24676;51.360;12.354;2022-09-12T14:01:12;1.10;;;1.02;;
38909;SDS011;24676;51.360;12.354;2022-09-12T14:03:57;0.82;;;0.82;;
38909;SDS011;24676;51.360;12.354;2022-09-12T14:07:07;0.95;;;0.68;;
38909;SDS011;24676;51.360;12.354;2022-09-12T14:09:55;0.85;;;0.85;;
38909;SDS011;24676;51.360;12.354;2022-09-12T14:12:43;0.70;;;0.70;;
38909;SDS011;24676;51.360;12.354;2022-09-12T14:15:34;0.80;;;0.80;;
38909;SDS011;24676;51.360;12.354;2022-09-12T14:18:26;0.70;;;0.50;;
38909;SDS011;24676;51.360;12.354;2022-09-12T14:21:55;2.50;;;0.50;;
38909;SDS011;24676;51.360;12.354;2022-09-12T14:24:20;0.80;;;0.77;;
38909;SDS011;24676;51.360;12.354;2022-09-12T15:15:14;1.45;;;0.80;;
38909;SDS011;24676;51.360;12.354;2022-09-12T15:18:03;0.75;;;0.73;;
38909;SDS011;24676;51.360;12.354;2022-09-12T15:20:49;1.27;;;1.17;;
38909;SDS011;24676;51.360;12.354;2022-09-12T15:23:48;0.98;;;0.68;;
38909;SDS011;24676;51.360;12.354;2022-09-12T15:26:34;1.77;;;1.20;;
38909;SDS011;24676;51.360;12.354;2022-09-12T15:29:18;1.38;;;1.27;;
38909;SDS011;24676;51.360;12.354;2022-09-12T15:32:03;2.33;;;0.90;;
38909;SDS011;24676;51.360;12.354;2022-09-12T15:34:48;2.33;;;0.85;;
38909;SDS011;24676;51.360;12.354;2022-09-12T15:37:32;1.45;;;0.90;;
38909;SDS011;24676;51.360;12.354;2022-09-12T17:19:01;5.00;;;1.30;;
38909;SDS011;24676;51.360;12.354;2022-09-12T17:21:46;0.80;;;0.80;;
38909;SDS011;24676;51.360;12.354;2022-09-12T17:24:32;1.20;;;1.10;;
38909;SDS011;24676;51.360;12.354;2022-09-12T17:27:17;1.20;;;1.10;;
38909;SDS011;24676;51.360;12.354;2022-09-12T17:30:01;1.52;;;1.42;;
38909;SDS011;24676;51.360;12.354;2022-09-12T17:32:46;0.80;;;0.80;;
38909;SDS011;24676;51.360;12.354;2022-09-12T17:35:34;1.57;;;1.47;;
38909;SDS011;24676;51.360;12.354;2022-09-12T17:38:19;2.35;;;2.25;;
38909;SDS011;24676;51.360;12.354;2022-09-12T17:43:56;1.20;;;1.10;;
38909;SDS011;24676;51.360;12.354;2022-09-12T17:46:42;3.35;;;1.40;;
38909;SDS011;24676;51.360;12.354;2022-09-12T17:49:25;0.75;;;0.75;;
38909;SDS011;24676;51.360;12.354;2022-09-12T17:52:11;1.20;;;0.93;;
38909;SDS011;24676;51.360;12.354;2022-09-12T17:54:55;1.73;;;1.63;;
38909;SDS011;24676;51.360;12.354;2022-09-12T17:57:39;1.00;;;0.90;;
38909;SDS011;24676;51.360;12.354;2022-09-12T18:00:24;2.90;;;0.95;;
38909;SDS011;24676;51.360;12.354;2022-09-12T18:03:29;0.75;;;0.75;;
38909;SDS011;24676;51.360;12.354;2022-09-12T18:06:13;2.08;;;0.95;;
38909;SDS011;24676;51.360;12.354;2022-09-12T18:39:05;6.20;;;1.80;;
38909;SDS011;24676;51.360;12.354;2022-09-12T18:41:50;1.55;;;1.50;;
38909;SDS011;24676;51.360;12.354;2022-09-12T19:17:36;2.90;;;1.70;;
38909;SDS011;24676;51.360;12.354;2022-09-12T19:20:21;1.60;;;1.50;;
38909;SDS011;24676;51.360;12.354;2022-09-12T20:04:20;1.60;;;1.50;;
38909;SDS011;24676;51.360;12.354;2022-09-12T20:12:33;1.90;;;1.35;;
38909;SDS011;24676;51.360;12.354;2022-09-12T20:15:17;2.00;;;1.17;;
38909;SDS011;24676;51.360;12.354;2022-09-12T20:26:14;3.80;;;1.77;;
38909;SDS011;24676;51.360;12.354;2022-09-12T20:28:58;2.67;;;1.95;;
38909;SDS011;24676;51.360;12.354;2022-09-12T20:31:42;4.93;;;2.88;;
38909;SDS011;24676;51.360;12.354;2022-09-12T20:34:27;5.28;;;3.38;;
38909;SDS011;24676;51.360;12.354;2022-09-12T20:37:11;4.55;;;2.85;;
38909;SDS011;24676;51.360;12.354;2022-09-12T20:39:56;2.88;;;2.03;;
38909;SDS011;24676;51.360;12.354;2022-09-12T20:42:40;4.95;;;3.55;;
38909;SDS011;24676;51.360;12.354;2022-09-12T20:45:25;1.98;;;1.80;;
38909;SDS011;24676;51.360;12.354;2022-09-12T20:48:09;2.53;;;2.35;;
38909;SDS011;24676;51.360;12.354;2022-09-12T20:50:56;2.20;;;2.00;;
38909;SDS011;24676;51.360;12.354;2022-09-12T20:53:42;2.10;;;1.83;;
38909;SDS011;24676;51.360;12.354;2022-09-12T20:56:26;1.63;;;1.38;;
38909;SDS011;24676;51.360;12.354;2022-09-12T20:59:11;1.83;;;1.73;;
